Time;durP1;ratioP1;P1;durP2;ratioP2;P2;SDS_P1;SDS_P2;PMS_P1;PMS_P2;Temp;Humidity;BMP_temperature;BMP_pressure;BME280_temperature;BME280_humidity;BME280_pressure;Samples;Min_cycle;Max_cycle;Signal;HPM_P1;HPM_P2
2023/04/22 00:01:51;;;;;;;8.30;4.00;;;;;;;17.40;49.93;98975.73;104352;1274;60750;-63
2023/04/22 00:04:20;;;;;;;5.60;3.80;;;;;;;17.42;49.91;98970.52;104469;1253;59692;-62
2023/04/22 00:06:48;;;;;;;10.30;4.00;;;;;;;17.46;49.62;98965.40;104339;1251;72285;-62
2023/04/22 00:09:17;;;;;;;6.40;3.80;;;;;;;17.40;49.82;98964.08;104381;1264;68821;-63
2023/04/22 00:11:45;;;;;;;10.00;3.90;;;;;;;17.39;49.79;98960.64;104548;1254;71995;-63
2023/04/22 00:14:13;;;;;;;8.00;4.20;;;;;;;17.33;49.76;98961.42;104570;1257;61262;-62
2023/04/22 00:16:42;;;;;;;8.40;4.10;;;;;;;17.34;49.56;98957.69;104633;1267;59776;-62
2023/04/22 00:19:10;;;;;;;8.40;3.70;;;;;;;17.22;49.64;98954.02;104799;1251;72157;-63
2023/04/22 00:21:39;;;;;;;5.30;3.60;;;;;;;17.15;49.77;98950.16;104554;1257;68340;-62
2023/04/22 00:24:08;;;;;;;6.70;3.70;;;;;;;17.07;49.79;98951.48;104402;1251;71744;-62
2023/04/22 00:26:36;;;;;;;7.30;3.60;;;;;;;17.11;49.90;98955.29;104403;1253;61220;-62
2023/04/22 00:29:04;;;;;;;9.70;3.90;;;;;;;17.18;49.36;98953.34;104503;1257;59748;-63
2023/04/22 00:31:33;;;;;;;6.60;4.30;;;;;;;17.18;49.39;98949.09;104382;1251;72144;-62
2023/04/22 00:34:01;;;;;;;8.90;4.00;;;;;;;17.17;48.91;98952.33;104414;1267;69246;-62
2023/04/22 00:36:31;;;;;;;7.00;3.80;;;;;;;17.14;48.96;98956.45;104371;1254;71870;-62
2023/04/22 00:38:59;;;;;;;13.20;4.40;;;;;;;17.06;49.04;98960.09;104441;1264;60015;-62
2023/04/22 00:41:27;;;;;;;6.70;4.40;;;;;;;17.11;49.11;98960.77;104683;1256;59762;-62
2023/04/22 00:43:56;;;;;;;9.70;4.50;;;;;;;17.06;49.10;98958.66;104780;1253;72206;-63
2023/04/22 00:46:24;;;;;;;11.80;4.70;;;;;;;17.01;49.11;98961.02;104482;1256;69565;-62
2023/04/22 00:48:53;;;;;;;4.80;3.80;;;;;;;16.96;48.99;98959.82;104290;1254;72235;-62
2023/04/22 00:51:21;;;;;;;5.50;3.50;;;;;;;16.97;48.77;98964.16;104493;1253;61059;-63
2023/04/22 00:53:49;;;;;;;7.40;3.50;;;;;;;16.99;48.68;98963.46;104432;1256;59831;-63
2023/04/22 00:56:19;;;;;;;5.20;4.10;;;;;;;17.03;48.34;98965.29;104557;1260;72620;-62
2023/04/22 00:58:47;;;;;;;7.50;3.90;;;;;;;16.97;48.30;98966.67;104498;1255;68710;-62
2023/04/22 01:01:16;;;;;;;7.60;3.80;;;;;;;16.91;48.38;98967.16;104625;1250;71765;-63
2023/04/22 01:03:45;;;;;;;6.50;4.20;;;;;;;16.85;48.56;98969.22;104577;1254;60540;-62
2023/04/22 01:06:15;;;;;;;8.20;4.20;;;;;;;16.80;48.67;98969.59;104573;1258;60440;-62
2023/04/22 01:08:44;;;;;;;5.40;3.70;;;;;;;16.76;48.71;98965.51;104330;1254;73024;-62
2023/04/22 01:11:12;;;;;;;5.10;4.00;;;;;;;16.67;48.62;98966.52;104317;1267;68691;-62
2023/04/22 01:13:42;;;;;;;5.40;3.60;;;;;;;16.66;48.65;98971.17;104346;1251;72575;-64
2023/04/22 01:16:11;;;;;;;7.20;3.60;;;;;;;16.67;48.63;98970.23;104324;1251;60867;-63
2023/04/22 01:18:39;;;;;;;7.80;3.50;;;;;;;16.69;48.47;98968.66;104287;1274;60323;-63
2023/04/22 01:21:07;;;;;;;9.30;3.90;;;;;;;16.70;48.24;98967.55;104328;1251;73564;-63
2023/04/22 01:23:36;;;;;;;7.30;4.00;;;;;;;16.72;47.96;98967.00;104304;1257;68854;-63
2023/04/22 01:26:04;;;;;;;5.20;3.90;;;;;;;16.74;47.94;98969.30;104247;1256;71933;-62
2023/04/22 01:28:33;;;;;;;5.30;4.40;;;;;;;16.68;47.72;98969.63;104379;1251;61058;-62
2023/04/22 01:31:01;;;;;;;7.20;4.10;;;;;;;16.68;47.76;98966.61;104445;1257;60552;-61
2023/04/22 01:33:29;;;;;;;5.90;3.80;;;;;;;16.67;47.67;98968.84;104602;1253;74292;-62
2023/04/22 01:35:58;;;;;;;5.30;4.30;;;;;;;16.65;47.68;98970.21;104447;1251;70395;-63
2023/04/22 01:38:27;;;;;;;7.60;4.10;;;;;;;16.64;47.73;98970.16;104412;1255;71524;-63
2023/04/22 01:40:57;;;;;;;9.40;5.30;;;;;;;16.63;47.55;98970.36;104284;1252;60972;-63
2023/04/22 01:43:25;;;;;;;6.10;3.90;;;;;;;16.60;47.47;98967.98;104379;1255;60544;-63
2023/04/22 01:45:53;;;;;;;7.50;4.40;;;;;;;16.52;47.61;98968.55;104434;1254;73823;-63
2023/04/22 01:48:22;;;;;;;7.00;4.40;;;;;;;16.48;47.82;98969.94;104320;1269;69431;-63
2023/04/22 01:50:50;;;;;;;7.70;4.20;;;;;;;16.48;47.68;98973.67;104274;1258;72831;-63
2023/04/22 01:53:19;;;;;;;7.70;3.90;;;;;;;16.48;47.72;98969.74;104385;1252;60916;-63
2023/04/22 01:55:47;;;;;;;7.60;4.70;;;;;;;16.46;47.63;98969.06;104354;1256;60558;-63
2023/04/22 01:58:15;;;;;;;7.00;4.40;;;;;;;16.42;47.73;98967.60;104359;1254;73829;-63
2023/04/22 02:00:44;;;;;;;7.00;4.30;;;;;;;16.38;47.80;98970.92;104231;1257;69599;-65
2023/04/22 02:03:13;;;;;;;5.10;4.30;;;;;;;16.37;47.72;98972.61;104571;1253;73092;-65
2023/04/22 02:05:41;;;;;;;6.10;4.50;;;;;;;16.35;47.78;98975.38;104624;1253;60982;-65
2023/04/22 02:08:10;;;;;;;6.10;4.50;;;;;;;16.39;47.65;98978.23;104449;1257;60578;-62
2023/04/22 02:10:38;;;;;;;9.90;4.60;;;;;;;16.42;47.34;98974.87;104568;1256;73926;-63
2023/04/22 02:13:07;;;;;;;7.60;4.90;;;;;;;16.35;47.22;98975.58;104344;1267;69441;-62
2023/04/22 02:15:39;;;;;;;5.90;4.70;;;;;;;16.30;47.31;98975.79;104292;1267;72835;-62
2023/04/22 02:18:09;;;;;;;5.90;4.50;;;;;;;16.27;47.36;98977.80;104525;1254;60553;-62
2023/04/22 02:20:37;;;;;;;6.40;4.10;;;;;;;16.20;47.19;98971.92;104523;1253;60359;-62
2023/04/22 02:23:06;;;;;;;5.40;4.20;;;;;;;16.09;47.27;98976.98;104297;1267;73335;-64
2023/04/22 02:25:34;;;;;;;9.00;4.60;;;;;;;16.05;47.34;98979.83;104328;1262;69289;-62
2023/04/22 02:28:03;;;;;;;7.80;4.70;;;;;;;16.02;47.22;98978.95;104342;1259;72266;-62
2023/04/22 02:30:31;;;;;;;5.80;4.30;;;;;;;16.05;47.15;98978.74;104178;1275;62152;-62
2023/04/22 02:33:00;;;;;;;7.30;4.50;;;;;;;16.04;46.97;98982.50;104318;1264;60035;-62
2023/04/22 02:35:28;;;;;;;6.60;4.10;;;;;;;16.02;46.91;98979.16;104648;1253;74005;-62
2023/04/22 02:37:57;;;;;;;5.70;3.50;;;;;;;15.93;47.00;98981.92;104401;1258;68715;-62
2023/04/22 02:40:25;;;;;;;7.90;4.50;;;;;;;15.96;46.84;98980.63;104243;1256;71736;-62
2023/04/22 02:42:54;;;;;;;6.40;4.70;;;;;;;15.88;46.89;98980.91;104249;1254;60571;-62
2023/04/22 02:45:23;;;;;;;6.00;4.50;;;;;;;15.88;46.74;98979.52;104426;1264;60542;-62
2023/04/22 02:47:51;;;;;;;6.20;4.00;;;;;;;15.91;46.78;98981.05;104915;1254;72920;-62
2023/04/22 02:50:20;;;;;;;6.90;3.70;;;;;;;15.91;46.52;98980.63;104458;1262;69929;-62
2023/04/22 02:52:48;;;;;;;4.30;3.90;;;;;;;15.91;46.47;98984.58;104278;1266;71587;-62
2023/04/22 02:55:17;;;;;;;4.60;4.20;;;;;;;15.88;46.51;98986.55;104450;1263;61276;-62
2023/04/22 02:57:45;;;;;;;5.10;4.10;;;;;;;15.89;46.46;98985.92;104422;1252;59528;-62
2023/04/22 03:00:14;;;;;;;5.10;3.90;;;;;;;15.90;46.43;98987.11;104464;1258;73491;-62
2023/04/22 03:02:42;;;;;;;5.90;4.30;;;;;;;15.93;46.17;98987.95;104667;1250;68693;-63
2023/04/22 03:05:15;;;;;;;4.30;3.90;;;;;;;15.94;46.23;98989.10;104602;1254;72600;-62
2023/04/22 03:07:46;;;;;;;5.10;4.00;;;;;;;15.96;46.11;98989.13;104348;1251;60582;-62
2023/04/22 03:10:15;;;;;;;5.40;4.40;;;;;;;15.96;46.17;98992.30;104717;1257;60705;-62
2023/04/22 03:12:44;;;;;;;6.70;4.00;;;;;;;16.00;45.86;98991.33;104565;1251;74045;-62
2023/04/22 03:15:12;;;;;;;4.70;4.20;;;;;;;16.02;45.78;98998.95;104569;1254;68981;-61
2023/04/22 03:17:41;;;;;;;4.90;4.20;;;;;;;16.01;45.88;98998.28;104662;1263;72426;-63
2023/04/22 03:20:11;;;;;;;6.20;3.90;;;;;;;16.02;45.74;99000.19;104422;1267;61236;-61
2023/04/22 03:22:40;;;;;;;7.00;4.10;;;;;;;16.06;45.84;99001.14;104481;1251;59862;-62
2023/04/22 03:25:09;;;;;;;5.00;3.90;;;;;;;16.09;45.87;99002.80;104424;1253;72658;-61
2023/04/22 03:27:38;;;;;;;4.70;4.10;;;;;;;16.14;45.96;99007.76;104344;1257;68956;-61
2023/04/22 03:30:07;;;;;;;5.70;3.80;;;;;;;16.11;45.68;99006.00;104644;1257;71786;-64
2023/04/22 03:32:37;;;;;;;6.10;3.50;;;;;;;16.14;45.79;99005.83;104506;1254;60978;-63
2023/04/22 03:35:19;;;;;;;5.90;3.60;;;;;;;16.25;45.64;99015.02;104276;1274;59933;-61
2023/04/22 03:37:49;;;;;;;5.30;3.90;;;;;;;16.31;45.49;99016.33;104348;1254;73628;-61
2023/04/22 03:40:22;;;;;;;4.20;3.70;;;;;;;16.36;45.34;99018.42;104331;1253;69879;-62
2023/04/22 03:42:50;;;;;;;5.10;3.80;;;;;;;16.47;45.15;99017.46;104227;1253;71964;-63
2023/04/22 03:45:20;;;;;;;7.20;3.90;;;;;;;16.50;45.14;99018.48;104627;1259;61306;-62
2023/04/22 03:47:57;;;;;;;8.90;3.90;;;;;;;16.55;44.96;99018.05;104393;1251;61356;-62
2023/04/22 03:50:32;;;;;;;4.40;3.50;;;;;;;16.68;44.93;99020.79;104523;1253;74033;-61
2023/04/22 03:53:00;;;;;;;3.50;3.20;;;;;;;16.73;44.84;99024.29;104769;1257;69808;-62
2023/04/22 03:55:29;;;;;;;3.90;3.60;;;;;;;16.82;44.66;99030.36;104269;1256;72665;-65
2023/04/22 03:57:57;;;;;;;5.00;3.30;;;;;;;16.91;44.84;99030.65;104590;1257;61057;-66
2023/04/22 04:00:26;;;;;;;4.30;3.10;;;;;;;16.98;44.51;99035.11;104390;1265;60463;-66
2023/04/22 04:03:03;;;;;;;4.40;4.00;;;;;;;17.05;44.21;99035.97;104460;1251;73164;-68
2023/04/22 04:05:34;;;;;;;3.60;3.30;;;;;;;17.13;44.09;99035.30;104453;1275;69661;-63
2023/04/22 04:08:03;;;;;;;5.20;4.10;;;;;;;17.22;43.76;99037.83;104377;1269;72722;-65
2023/04/22 04:10:32;;;;;;;4.60;3.80;;;;;;;17.27;43.42;99042.72;104415;1259;61259;-64
2023/04/22 04:13:00;;;;;;;5.00;3.90;;;;;;;17.36;43.49;99047.64;104512;1253;60549;-63
2023/04/22 04:15:34;;;;;;;5.40;3.90;;;;;;;17.41;43.31;99048.68;104430;1256;74089;-64
2023/04/22 04:18:04;;;;;;;4.80;3.80;;;;;;;17.48;42.86;99051.30;104422;1263;68917;-64
2023/04/22 04:20:33;;;;;;;4.30;3.90;;;;;;;17.48;42.30;99055.39;104299;1255;71969;-62
2023/04/22 04:23:02;;;;;;;4.60;3.70;;;;;;;17.53;42.88;99057.65;104403;1251;61148;-62
2023/04/22 04:25:37;;;;;;;3.70;3.40;;;;;;;17.63;42.91;99060.55;104538;1259;60539;-63
2023/04/22 04:28:10;;;;;;;3.70;3.40;;;;;;;17.70;42.50;99057.69;104532;1262;74103;-65
2023/04/22 04:30:40;;;;;;;3.90;3.50;;;;;;;17.75;42.18;99062.73;104456;1252;69144;-62
2023/04/22 04:33:10;;;;;;;4.50;3.90;;;;;;;17.84;42.16;99061.13;104457;1257;72464;-63
2023/04/22 04:35:40;;;;;;;4.10;3.60;;;;;;;17.87;42.15;99063.38;104535;1265;62655;-62
2023/04/22 04:38:11;;;;;;;5.30;4.10;;;;;;;17.92;42.04;99067.63;104523;1257;60712;-63
2023/04/22 04:40:42;;;;;;;3.90;3.60;;;;;;;17.98;42.09;99068.02;104607;1257;73625;-64
2023/04/22 04:43:18;;;;;;;4.10;3.40;;;;;;;18.05;41.66;99070.27;104543;1251;68714;-65
2023/04/22 04:45:49;;;;;;;4.80;4.00;;;;;;;18.10;41.82;99074.77;104444;1269;71696;-65
2023/04/22 04:48:23;;;;;;;4.10;3.80;;;;;;;18.13;41.67;99077.39;104353;1265;61337;-65
2023/04/22 04:50:55;;;;;;;5.00;3.70;;;;;;;18.19;41.56;99074.40;104318;1260;60161;-65
2023/04/22 04:53:24;;;;;;;3.90;3.50;;;;;;;18.24;41.70;99081.29;104461;1255;73786;-65
2023/04/22 04:55:53;;;;;;;4.30;3.50;;;;;;;18.32;41.60;99078.64;104382;1262;69730;-66
2023/04/22 04:58:22;;;;;;;4.50;3.90;;;;;;;18.32;41.76;99078.67;104186;1256;72875;-64
2023/04/22 05:01:01;;;;;;;4.60;3.90;;;;;;;18.34;41.82;99075.45;104407;1259;60978;-64
2023/04/22 05:03:30;;;;;;;3.80;3.20;;;;;;;18.33;42.12;99080.76;104387;1275;61244;-63
2023/04/22 05:05:59;;;;;;;4.70;3.90;;;;;;;18.39;42.14;99079.70;104278;1264;73509;-65
2023/04/22 05:08:28;;;;;;;8.10;4.10;;;;;;;18.42;41.04;99075.52;104355;1262;69589;-65
2023/04/22 05:11:02;;;;;;;6.20;4.00;;;;;;;18.42;41.41;99076.05;104661;1253;71944;-62
2023/04/22 05:13:31;;;;;;;5.80;4.30;;;;;;;18.39;42.15;99077.39;104496;1251;61577;-63
2023/04/22 05:16:00;;;;;;;5.40;4.00;;;;;;;18.36;41.81;99076.04;104995;1252;60565;-65
2023/04/22 05:18:28;;;;;;;7.10;4.00;;;;;;;18.38;41.84;99075.47;104700;1251;74797;-64
2023/04/22 05:20:58;;;;;;;7.20;4.10;;;;;;;18.39;41.87;99073.32;104889;1253;68726;-64
2023/04/22 05:23:29;;;;;;;5.90;4.30;;;;;;;18.41;41.65;99079.64;104657;1253;72642;-63
2023/04/22 05:25:58;;;;;;;4.80;4.30;;;;;;;18.51;42.02;99080.77;104290;1262;61106;-62
2023/04/22 05:28:27;;;;;;;5.50;4.90;;;;;;;18.62;41.60;99080.92;104499;1252;60551;-63
2023/04/22 05:30:56;;;;;;;7.70;4.30;;;;;;;18.70;41.76;99082.88;104343;1268;74614;-62
2023/04/22 05:33:27;;;;;;;7.30;3.90;;;;;;;18.82;41.55;99084.36;104497;1262;69946;-63
2023/04/22 05:35:56;;;;;;;4.90;4.20;;;;;;;18.85;41.29;99080.56;104322;1254;72651;-64
2023/04/22 05:38:24;;;;;;;7.00;4.50;;;;;;;18.87;41.35;99083.80;104353;1269;61148;-63
2023/04/22 05:40:54;;;;;;;6.90;4.30;;;;;;;18.85;41.20;99086.08;104211;1265;60483;-64
2023/04/22 05:43:24;;;;;;;8.80;4.20;;;;;;;18.93;40.43;99088.79;104294;1254;73096;-67
2023/04/22 05:46:00;;;;;;;6.30;4.40;;;;;;;19.08;40.78;99089.80;104224;1267;69498;-63
2023/04/22 05:48:29;;;;;;;5.00;4.20;;;;;;;19.26;40.60;99091.05;104312;1254;72801;-65
2023/04/22 05:51:00;;;;;;;5.00;4.00;;;;;;;19.40;40.77;99089.34;104282;1260;61390;-63
2023/04/22 05:53:29;;;;;;;4.70;4.20;;;;;;;19.46;40.66;99088.93;104333;1255;60603;-68
2023/04/22 05:55:59;;;;;;;5.80;4.70;;;;;;;19.56;40.67;99090.01;105190;1251;74062;-69
2023/04/22 05:58:28;;;;;;;8.70;4.80;;;;;;;19.69;40.32;99089.45;108362;1250;68687;-70
2023/04/22 06:01:10;;;;;;;6.40;3.90;;;;;;;19.95;39.77;99088.73;108302;1251;72201;-66
2023/04/22 06:03:56;;;;;;;4.70;4.20;;;;;;;20.11;39.80;99090.95;108462;1251;61333;-68
2023/04/22 06:06:26;;;;;;;4.20;3.80;;;;;;;20.20;39.81;99090.40;105803;1251;61233;-64
2023/04/22 06:08:55;;;;;;;5.20;4.10;;;;;;;20.33;39.26;99093.46;104845;1254;74405;-65
2023/04/22 06:11:23;;;;;;;5.70;4.70;;;;;;;20.45;40.30;99095.39;104359;1253;69248;-71
2023/04/22 06:13:51;;;;;;;6.50;5.30;;;;;;;20.56;39.34;99092.52;104786;1253;73400;-74
2023/04/22 06:16:21;;;;;;;4.80;4.40;;;;;;;20.77;39.40;99094.38;104405;1267;60572;-71
2023/04/22 06:18:49;;;;;;;5.80;4.90;;;;;;;20.93;38.94;99096.28;104557;1256;60560;-68
2023/04/22 06:21:19;;;;;;;5.70;5.20;;;;;;;21.09;38.86;99092.65;104269;1275;73714;-68
2023/04/22 06:23:47;;;;;;;7.00;5.50;;;;;;;21.17;38.69;99091.46;104634;1252;69633;-68
2023/04/22 06:26:16;;;;;;;7.70;5.90;;;;;;;21.26;38.25;99090.82;104495;1260;72124;-68
2023/04/22 06:28:45;;;;;;;7.70;5.20;;;;;;;21.36;37.98;99095.16;104417;1250;61913;-71
2023/04/22 06:31:17;;;;;;;9.00;5.60;;;;;;;21.48;38.37;99092.08;104400;1256;61154;-69
2023/04/22 06:33:48;;;;;;;6.40;5.30;;;;;;;21.60;36.98;99094.33;104560;1250;75493;-71
2023/04/22 06:36:17;;;;;;;7.10;5.20;;;;;;;21.80;37.17;99095.91;104571;1251;68864;-69
2023/04/22 06:38:50;;;;;;;8.00;6.10;;;;;;;21.96;37.33;99095.80;104570;1252;72661;-70
2023/04/22 06:41:38;;;;;;;9.40;6.60;;;;;;;22.05;36.07;99096.91;104412;1250;60578;-69
2023/04/22 06:44:18;;;;;;;7.90;5.80;;;;;;;22.20;36.46;99100.70;104356;1257;60335;-68
2023/04/22 06:47:15;;;;;;;6.20;4.80;;;;;;;22.33;36.36;99102.02;104575;1252;73658;-67
2023/04/22 06:50:12;;;;;;;5.40;4.70;;;;;;;22.38;36.37;99104.86;104646;1254;69296;-65
2023/04/22 06:52:48;;;;;;;7.50;5.20;;;;;;;22.56;36.27;99109.06;104398;1263;72847;-66
2023/04/22 06:55:18;;;;;;;5.70;4.90;;;;;;;22.86;35.01;99111.60;104349;1257;60493;-65
2023/04/22 06:57:46;;;;;;;7.60;5.30;;;;;;;22.95;35.27;99109.81;104501;1267;61744;-65
2023/04/22 07:00:15;;;;;;;6.30;4.80;;;;;;;22.86;35.17;99109.85;104881;1254;73647;-65
2023/04/22 07:02:43;;;;;;;8.10;5.20;;;;;;;22.71;35.41;99106.91;104418;1257;69827;-65
2023/04/22 07:05:11;;;;;;;7.60;5.00;;;;;;;22.79;35.69;99111.42;104450;1256;72710;-65
2023/04/22 07:07:40;;;;;;;6.10;5.10;;;;;;;23.20;35.11;99108.84;104843;1257;60561;-65
2023/04/22 07:10:11;;;;;;;6.00;4.70;;;;;;;23.12;34.81;99107.73;104853;1256;60540;-65
2023/04/22 07:12:44;;;;;;;5.30;4.50;;;;;;;23.29;34.80;99106.71;104404;1269;73208;-65
2023/04/22 07:15:12;;;;;;;5.70;4.60;;;;;;;23.18;35.17;99111.58;104776;1257;69544;-67
2023/04/22 07:17:41;;;;;;;7.30;5.40;;;;;;;23.16;34.67;99109.77;104662;1256;71894;-65
2023/04/22 07:20:10;;;;;;;6.70;4.80;;;;;;;23.22;34.40;99113.98;104653;1254;60495;-66
2023/04/22 07:22:38;;;;;;;6.20;4.40;;;;;;;23.41;34.74;99110.75;104658;1254;60414;-68
2023/04/22 07:25:07;;;;;;;6.10;4.00;;;;;;;23.51;34.64;99116.52;104311;1256;73341;-66
2023/04/22 07:27:36;;;;;;;4.30;3.80;;;;;;;23.55;34.51;99116.31;104873;1251;68766;-65
2023/04/22 07:30:06;;;;;;;4.90;4.30;;;;;;;23.76;34.08;99118.55;104579;1256;72846;-66
2023/04/22 07:32:36;;;;;;;7.40;4.50;;;;;;;23.68;33.99;99117.80;104331;1267;61544;-65
2023/04/22 07:35:05;;;;;;;4.40;4.00;;;;;;;23.66;33.95;99119.91;104743;1256;61291;-65
2023/04/22 07:37:33;;;;;;;4.80;4.30;;;;;;;23.75;33.84;99122.42;104401;1257;73998;-63
2023/04/22 07:40:02;;;;;;;4.70;3.70;;;;;;;23.86;33.49;99121.95;104435;1260;70412;-65
2023/04/22 07:42:31;;;;;;;4.60;4.20;;;;;;;23.94;33.53;99124.18;104245;1264;72969;-66
2023/04/22 07:45:00;;;;;;;4.30;3.90;;;;;;;24.06;33.09;99124.67;104420;1257;60626;-63
2023/04/22 07:47:28;;;;;;;5.30;3.70;;;;;;;24.27;33.26;99126.55;104297;1272;60546;-64
2023/04/22 07:49:57;;;;;;;5.50;4.30;;;;;;;24.61;32.86;99121.85;104669;1255;73649;-66
2023/04/22 07:52:25;;;;;;;5.00;3.90;;;;;;;24.37;32.73;99128.67;104239;1263;68730;-68
2023/04/22 07:54:55;;;;;;;4.30;3.90;;;;;;;24.58;32.62;99129.86;104402;1266;72834;-66
2023/04/22 07:57:24;;;;;;;6.40;4.20;;;;;;;24.61;32.54;99131.65;104355;1251;61342;-67
2023/04/22 07:59:52;;;;;;;6.50;4.20;;;;;;;24.60;32.64;99133.74;104412;1254;60560;-63
2023/04/22 08:02:21;;;;;;;5.10;3.50;;;;;;;24.62;32.24;99134.92;104388;1254;73972;-66
2023/04/22 08:04:50;;;;;;;4.90;3.90;;;;;;;24.86;32.20;99134.53;104402;1257;69573;-66
2023/04/22 08:07:19;;;;;;;8.80;3.90;;;;;;;25.24;31.44;99132.59;104588;1255;72909;-64
2023/04/22 08:09:51;;;;;;;4.50;4.10;;;;;;;25.38;30.52;99133.75;104522;1251;61083;-67
2023/04/22 08:12:19;;;;;;;4.60;4.10;;;;;;;25.48;31.23;99131.02;108283;1251;60474;-63
2023/04/22 08:14:47;;;;;;;6.70;3.90;;;;;;;25.55;30.89;99132.66;107418;1251;74619;-63
2023/04/22 08:17:16;;;;;;;4.00;3.70;;;;;;;25.55;30.14;99135.91;105824;1252;68771;-62
2023/04/22 08:19:44;;;;;;;4.10;3.60;;;;;;;25.66;30.75;99135.75;104634;1262;72904;-63
2023/04/22 08:22:13;;;;;;;5.10;4.40;;;;;;;25.68;30.65;99140.02;104856;1252;60620;-61
2023/04/22 08:24:42;;;;;;;7.00;4.80;;;;;;;25.53;30.50;99141.90;105090;1253;60619;-64
2023/04/22 08:27:10;;;;;;;4.40;4.00;;;;;;;25.52;30.79;99140.96;104985;1254;74041;-62
2023/04/22 08:29:38;;;;;;;5.20;4.70;;;;;;;25.63;30.53;99142.03;104895;1251;69842;-63
2023/04/22 08:32:07;;;;;;;4.90;4.00;;;;;;;25.67;30.18;99142.14;104623;1257;72323;-62
2023/04/22 08:34:36;;;;;;;5.30;4.80;;;;;;;25.55;30.15;99139.30;104299;1252;62036;-63
2023/04/22 08:37:06;;;;;;;5.00;4.50;;;;;;;25.27;30.79;99146.46;104524;1256;60565;-63
2023/04/22 08:39:34;;;;;;;8.50;4.80;;;;;;;25.47;30.33;99139.77;104349;1264;74042;-63
2023/04/22 08:42:02;;;;;;;5.70;5.00;;;;;;;25.29;30.49;99147.16;104373;1251;68704;-63
2023/04/22 08:44:31;;;;;;;4.80;4.10;;;;;;;25.19;30.26;99146.34;104343;1252;72217;-63
2023/04/22 08:47:00;;;;;;;8.10;4.80;;;;;;;25.30;30.89;99145.40;104423;1265;60682;-64
2023/04/22 08:49:30;;;;;;;4.70;4.20;;;;;;;25.44;30.14;99147.05;104238;1256;60550;-63
2023/04/22 08:51:58;;;;;;;6.70;4.60;;;;;;;25.47;30.31;99145.21;104390;1272;74397;-63
2023/04/22 08:54:26;;;;;;;7.40;5.10;;;;;;;25.52;30.25;99142.13;104421;1257;69742;-63
2023/04/22 08:56:55;;;;;;;5.80;4.80;;;;;;;25.59;29.99;99136.56;104459;1251;71716;-65
2023/04/22 08:59:23;;;;;;;6.40;4.90;;;;;;;25.63;29.93;99137.36;104321;1256;60826;-63
2023/04/22 09:01:52;;;;;;;10.80;5.80;;;;;;;25.62;29.84;99142.34;104420;1269;61005;-62
2023/04/22 09:04:21;;;;;;;8.50;5.70;;;;;;;25.59;29.57;99143.19;104360;1265;73035;-63
2023/04/22 09:06:49;;;;;;;9.30;5.10;;;;;;;25.57;28.94;99141.20;104149;1255;371005;-65
2023/04/22 09:09:57;;;;;;;6.00;5.20;;;;;;;24.51;30.99;99147.88;101445;1291;601140;-63
2023/04/22 09:12:25;;;;;;;6.00;4.50;;;;;;;25.78;28.36;99140.92;103893;1273;59883;-64
2023/04/22 09:14:54;;;;;;;4.00;3.60;;;;;;;25.83;27.73;99139.16;103877;1281;62035;-66
2023/04/22 09:17:33;;;;;;;3.50;3.20;;;;;;;25.98;27.74;99141.84;104262;1261;72781;-67
2023/04/22 09:20:03;;;;;;;4.90;3.50;;;;;;;26.24;26.89;99135.09;104170;1272;68933;-63
2023/04/22 09:22:38;;;;;;;7.80;3.50;;;;;;;26.12;26.65;99133.95;103921;1265;248541;-63
2023/04/22 09:25:17;;;;;;;8.70;3.70;;;;;;;26.22;26.53;99132.45;104297;1257;59976;-62
2023/04/22 09:27:49;;;;;;;5.80;4.20;;;;;;;26.39;25.55;99134.20;104305;1259;59706;-63
2023/04/22 09:30:28;;;;;;;3.70;3.40;;;;;;;26.51;25.26;99133.84;104332;1259;71430;-65
2023/04/22 09:32:58;;;;;;;3.70;3.40;;;;;;;26.63;25.71;99136.39;104237;1259;69125;-64
2023/04/22 09:35:31;;;;;;;4.20;3.80;;;;;;;26.67;25.41;99135.12;104445;1258;72782;-65
2023/04/22 09:38:01;;;;;;;5.10;3.30;;;;;;;26.62;25.53;99129.77;104402;1257;60468;-64
2023/04/22 09:40:30;;;;;;;4.90;3.10;;;;;;;26.64;25.20;99132.60;104562;1257;59761;-65
2023/04/22 09:43:03;;;;;;;4.20;3.70;;;;;;;26.74;25.13;99134.38;104651;1256;72543;-65
2023/04/22 09:45:36;;;;;;;7.00;3.50;;;;;;;26.74;24.58;99138.02;104302;1267;70282;-65
2023/04/22 09:48:14;;;;;;;4.20;3.00;;;;;;;26.74;24.68;99137.45;104250;1263;72670;-64
2023/04/22 09:50:43;;;;;;;3.20;2.90;;;;;;;26.78;24.44;99140.11;104228;1257;60225;-64
2023/04/22 09:53:14;;;;;;;3.70;3.00;;;;;;;26.79;24.21;99141.02;104323;1275;60408;-65
2023/04/22 09:55:44;;;;;;;7.90;3.10;;;;;;;26.68;24.03;99136.77;104271;1259;72356;-63
2023/04/22 09:58:15;;;;;;;3.50;3.20;;;;;;;26.63;24.63;99132.90;104323;1259;68746;-64
2023/04/22 10:00:46;;;;;;;3.30;3.00;;;;;;;26.59;24.41;99134.08;104396;1269;72488;-62
2023/04/22 10:03:14;;;;;;;4.10;3.10;;;;;;;26.44;24.67;99136.34;104319;1263;59745;-61
2023/04/22 10:05:44;;;;;;;3.10;2.70;;;;;;;25.98;25.17;99134.77;104384;1260;60848;-64
2023/04/22 10:08:13;;;;;;;3.20;3.00;;;;;;;26.29;24.86;99134.06;104493;1256;73694;-60
2023/04/22 10:10:42;;;;;;;3.10;2.90;;;;;;;26.77;24.25;99132.47;104542;1260;68608;-62
2023/04/22 10:13:16;;;;;;;5.20;2.90;;;;;;;26.93;23.92;99132.11;104501;1250;72253;-62
2023/04/22 10:15:54;;;;;;;3.80;3.00;;;;;;;27.05;23.53;99137.89;104360;1256;60520;-64
2023/04/22 10:18:27;;;;;;;3.70;3.30;;;;;;;27.16;22.96;99136.23;104410;1268;59701;-62
2023/04/22 10:20:56;;;;;;;6.70;3.20;;;;;;;27.19;22.35;99137.89;104380;1266;72626;-63
2023/04/22 10:23:24;;;;;;;4.30;3.70;;;;;;;27.19;23.10;99143.42;104343;1256;70000;-63
2023/04/22 10:25:53;;;;;;;3.30;3.00;;;;;;;27.08;22.01;99145.61;104927;1254;73030;-65
2023/04/22 10:28:22;;;;;;;3.30;3.00;;;;;;;27.09;22.86;99144.67;104552;1256;59626;-66
2023/04/22 10:30:52;;;;;;;3.50;3.10;;;;;;;27.08;22.80;99143.63;104541;1250;59756;-67
2023/04/22 10:33:27;;;;;;;3.30;3.00;;;;;;;27.07;22.96;99143.44;104758;1259;73111;-65
2023/04/22 10:36:18;;;;;;;3.30;3.00;;;;;;;27.13;22.16;99149.88;105124;1254;69041;-66
2023/04/22 10:38:49;;;;;;;3.70;3.00;;;;;;;27.07;21.40;99148.36;104575;1266;73384;-66
2023/04/22 10:41:22;;;;;;;4.80;3.30;;;;;;;26.95;21.71;99148.81;104623;1255;60927;-68
2023/04/22 10:44:09;;;;;;;4.20;2.80;;;;;;;27.07;22.33;99148.46;104886;1253;60892;-66
2023/04/22 10:46:44;;;;;;;3.50;2.90;;;;;;;27.25;22.46;99145.05;104706;1264;72972;-67
2023/04/22 10:49:16;;;;;;;7.30;3.40;;;;;;;27.46;22.41;99146.73;104670;1251;69962;-67
2023/04/22 10:51:46;;;;;;;3.90;3.20;;;;;;;27.59;21.77;99141.70;104832;1255;72994;-66
2023/04/22 10:54:26;;;;;;;3.40;3.10;;;;;;;27.68;21.88;99139.54;104566;1251;59792;-66
2023/04/22 10:57:23;;;;;;;4.10;3.30;;;;;;;27.78;21.50;99139.16;104794;1255;60335;-69
2023/04/22 10:59:54;;;;;;;4.30;2.90;;;;;;;27.98;21.23;99146.29;104387;1256;73749;-70
2023/04/22 11:02:23;;;;;;;8.20;3.30;;;;;;;27.91;21.47;99143.51;104659;1256;70320;-68
2023/04/22 11:04:53;;;;;;;4.60;3.50;;;;;;;27.84;21.28;99147.05;104478;1253;71962;-67
2023/04/22 11:07:25;;;;;;;3.40;3.10;;;;;;;27.69;20.77;99151.07;104743;1258;61202;-67
2023/04/22 11:10:04;;;;;;;3.50;3.20;;;;;;;27.56;21.25;99153.52;104751;1256;59766;-67
2023/04/22 11:12:38;;;;;;;2.90;2.70;;;;;;;27.57;21.60;99151.48;106463;1253;72258;-67
2023/04/22 11:15:08;;;;;;;3.40;3.00;;;;;;;27.63;22.15;99152.31;108453;1251;70010;-63
2023/04/22 11:17:39;;;;;;;3.00;2.80;;;;;;;27.73;21.35;99152.90;108533;1250;72531;-65
2023/04/22 11:20:08;;;;;;;3.60;3.20;;;;;;;27.80;21.19;99161.30;108485;1252;60564;-65
2023/04/22 11:22:37;;;;;;;3.60;3.20;;;;;;;27.91;20.75;99158.54;105813;1250;60621;-65
2023/04/22 11:25:06;;;;;;;5.30;2.90;;;;;;;27.90;20.78;99156.59;104805;1256;73404;-68
2023/04/22 11:27:35;;;;;;;4.00;3.30;;;;;;;27.84;20.79;99155.69;104730;1254;68919;-64
2023/04/22 11:30:12;;;;;;;3.30;3.00;;;;;;;27.74;19.94;99153.94;104703;1254;73270;-64
2023/04/22 11:32:45;;;;;;;3.80;3.20;;;;;;;27.77;20.07;99152.99;104989;1259;59912;-64
2023/04/22 11:35:15;;;;;;;3.00;2.70;;;;;;;27.73;20.60;99156.67;104322;1256;60195;-66
2023/04/22 11:37:45;;;;;;;3.10;2.40;;;;;;;27.83;20.65;99156.44;104278;1259;73171;-66
2023/04/22 11:40:18;;;;;;;3.30;2.80;;;;;;;27.95;20.60;99153.46;104423;1262;68724;-67